Guaraniacu, Brazil
Current Conditions -  °F | °C
As of 7:00 PM on Tuesday 21 Oct 2014 (Local Time) from SBCA Reporting Station
Few Clouds Few Clouds  
Wind Chill: 77°   Ceiling: Unl
Heat Index: 79°   Visibility: 6mi
Dew Point: 64°   Wind: 17mph
Humidity: 65%   Direction: 150°SSE
Pressure: 30.06"   Gusts: NA
Location:  25.1°S, 52.88°W
Report Text: SBCA 212100Z 15015KT 9999 FEW025 25/18 Q1018
Loading
Personal Weather Stations






























Interactive Weather Map
Tropical Storm Tracking
New forecast layout! Learn more

10-Day Weather Forecast

Advertisements
Track Severe Weather on mobile